sensor_id;sensor_type;location;lat;lon;timestamp;P1;durP1;ratioP1;P2;durP2;ratioP2
82387;SDS011;72027;47.420;9.310;2024-02-26T00:02:27;0.50;;;0.40;;
82387;SDS011;72027;47.420;9.310;2024-02-26T00:04:55;0.60;;;0.45;;
82387;SDS011;72027;47.420;9.310;2024-02-26T00:07:23;1.98;;;0.47;;
82387;SDS011;72027;47.420;9.310;2024-02-26T00:09:51;4.38;;;0.70;;
82387;SDS011;72027;47.420;9.310;2024-02-26T00:12:18;0.40;;;0.40;;
82387;SDS011;72027;47.420;9.310;2024-02-26T00:14:46;0.50;;;0.50;;
82387;SDS011;72027;47.420;9.310;2024-02-26T00:17:16;0.57;;;0.43;;
82387;SDS011;72027;47.420;9.310;2024-02-26T00:19:45;1.83;;;0.68;;
82387;SDS011;72027;47.420;9.310;2024-02-26T00:22:13;0.52;;;0.52;;
82387;SDS011;72027;47.420;9.310;2024-02-26T00:24:40;0.40;;;0.40;;
82387;SDS011;72027;47.420;9.310;2024-02-26T00:27:08;0.30;;;0.30;;
82387;SDS011;72027;47.420;9.310;2024-02-26T00:29:36;0.50;;;0.50;;
82387;SDS011;72027;47.420;9.310;2024-02-26T00:32:04;0.50;;;0.50;;
82387;SDS011;72027;47.420;9.310;2024-02-26T00:34:32;0.30;;;0.30;;
82387;SDS011;72027;47.420;9.310;2024-02-26T00:37:01;1.70;;;0.38;;
82387;SDS011;72027;47.420;9.310;2024-02-26T00:39:29;0.20;;;0.20;;
82387;SDS011;72027;47.420;9.310;2024-02-26T00:41:57;0.45;;;0.45;;
82387;SDS011;72027;47.420;9.310;2024-02-26T00:44:25;0.47;;;0.45;;
82387;SDS011;72027;47.420;9.310;2024-02-26T00:46:52;0.50;;;0.45;;
82387;SDS011;72027;47.420;9.310;2024-02-26T00:49:20;0.43;;;0.40;;
82387;SDS011;72027;47.420;9.310;2024-02-26T00:51:48;0.43;;;0.43;;
82387;SDS011;72027;47.420;9.310;2024-02-26T00:54:17;0.40;;;0.40;;
82387;SDS011;72027;47.420;9.310;2024-02-26T00:56:45;0.35;;;0.35;;
82387;SDS011;72027;47.420;9.310;2024-02-26T00:59:13;0.30;;;0.30;;
82387;SDS011;72027;47.420;9.310;2024-02-26T01:01:41;0.63;;;0.30;;
82387;SDS011;72027;47.420;9.310;2024-02-26T01:04:08;0.40;;;0.40;;
82387;SDS011;72027;47.420;9.310;2024-02-26T01:06:36;0.73;;;0.40;;
82387;SDS011;72027;47.420;9.310;2024-02-26T01:09:04;0.40;;;0.40;;
82387;SDS011;72027;47.420;9.310;2024-02-26T01:11:33;0.40;;;0.40;;
82387;SDS011;72027;47.420;9.310;2024-02-26T01:14:01;0.43;;;0.30;;
82387;SDS011;72027;47.420;9.310;2024-02-26T01:16:30;0.50;;;0.30;;
82387;SDS011;72027;47.420;9.310;2024-02-26T01:18:58;1.23;;;0.57;;
82387;SDS011;72027;47.420;9.310;2024-02-26T01:21:26;0.65;;;0.35;;
82387;SDS011;72027;47.420;9.310;2024-02-26T01:23:55;0.55;;;0.50;;
82387;SDS011;72027;47.420;9.310;2024-02-26T01:26:23;0.30;;;0.30;;
82387;SDS011;72027;47.420;9.310;2024-02-26T01:28:52;0.57;;;0.40;;
82387;SDS011;72027;47.420;9.310;2024-02-26T01:31:21;0.47;;;0.47;;
82387;SDS011;72027;47.420;9.310;2024-02-26T01:33:49;0.40;;;0.40;;
82387;SDS011;72027;47.420;9.310;2024-02-26T01:36:16;0.80;;;0.30;;
82387;SDS011;72027;47.420;9.310;2024-02-26T01:38:44;1.33;;;0.50;;
82387;SDS011;72027;47.420;9.310;2024-02-26T01:41:13;0.55;;;0.55;;
82387;SDS011;72027;47.420;9.310;2024-02-26T01:43:41;0.75;;;0.30;;
82387;SDS011;72027;47.420;9.310;2024-02-26T01:46:10;0.73;;;0.60;;
82387;SDS011;72027;47.420;9.310;2024-02-26T01:48:41;1.23;;;0.35;;
82387;SDS011;72027;47.420;9.310;2024-02-26T01:51:10;0.75;;;0.75;;
82387;SDS011;72027;47.420;9.310;2024-02-26T01:53:39;0.32;;;0.32;;
82387;SDS011;72027;47.420;9.310;2024-02-26T01:56:07;1.67;;;0.40;;
82387;SDS011;72027;47.420;9.310;2024-02-26T01:58:36;0.25;;;0.25;;
82387;SDS011;72027;47.420;9.310;2024-02-26T02:01:04;0.40;;;0.40;;
82387;SDS011;72027;47.420;9.310;2024-02-26T02:03:34;0.28;;;0.20;;
82387;SDS011;72027;47.420;9.310;2024-02-26T02:06:02;0.20;;;0.20;;
82387;SDS011;72027;47.420;9.310;2024-02-26T02:08:30;0.50;;;0.50;;
82387;SDS011;72027;47.420;9.310;2024-02-26T02:11:01;1.27;;;0.30;;
82387;SDS011;72027;47.420;9.310;2024-02-26T02:13:29;0.40;;;0.40;;
82387;SDS011;72027;47.420;9.310;2024-02-26T02:15:57;0.32;;;0.32;;
82387;SDS011;72027;47.420;9.310;2024-02-26T02:18:25;2.45;;;1.60;;
82387;SDS011;72027;47.420;9.310;2024-02-26T02:20:54;0.22;;;0.22;;
82387;SDS011;72027;47.420;9.310;2024-02-26T02:23:25;1.15;;;0.22;;
82387;SDS011;72027;47.420;9.310;2024-02-26T02:25:53;0.35;;;0.32;;
82387;SDS011;72027;47.420;9.310;2024-02-26T02:28:23;0.30;;;0.30;;
82387;SDS011;72027;47.420;9.310;2024-02-26T02:30:52;0.40;;;0.30;;
82387;SDS011;72027;47.420;9.310;2024-02-26T02:33:20;0.25;;;0.25;;
82387;SDS011;72027;47.420;9.310;2024-02-26T02:35:48;0.30;;;0.30;;
82387;SDS011;72027;47.420;9.310;2024-02-26T02:38:19;0.55;;;0.55;;
82387;SDS011;72027;47.420;9.310;2024-02-26T02:40:47;0.20;;;0.20;;
82387;SDS011;72027;47.420;9.310;2024-02-26T02:43:15;0.45;;;0.30;;
82387;SDS011;72027;47.420;9.310;2024-02-26T02:45:43;0.90;;;0.57;;
82387;SDS011;72027;47.420;9.310;2024-02-26T02:48:11;0.82;;;0.45;;
82387;SDS011;72027;47.420;9.310;2024-02-26T02:50:39;1.55;;;0.57;;
82387;SDS011;72027;47.420;9.310;2024-02-26T02:53:06;0.93;;;0.60;;
82387;SDS011;72027;47.420;9.310;2024-02-26T02:58:02;0.98;;;0.57;;
82387;SDS011;72027;47.420;9.310;2024-02-26T03:00:30;1.33;;;0.73;;
82387;SDS011;72027;47.420;9.310;2024-02-26T03:02:58;1.85;;;0.75;;
82387;SDS011;72027;47.420;9.310;2024-02-26T03:05:26;1.40;;;0.82;;
82387;SDS011;72027;47.420;9.310;2024-02-26T03:07:54;0.73;;;0.73;;
82387;SDS011;72027;47.420;9.310;2024-02-26T03:10:21;0.90;;;0.90;;
82387;SDS011;72027;47.420;9.310;2024-02-26T03:12:51;1.58;;;1.08;;
82387;SDS011;72027;47.420;9.310;2024-02-26T03:15:18;0.77;;;0.70;;
82387;SDS011;72027;47.420;9.310;2024-02-26T03:17:46;1.17;;;0.90;;
82387;SDS011;72027;47.420;9.310;2024-02-26T03:20:14;0.90;;;0.80;;
82387;SDS011;72027;47.420;9.310;2024-02-26T03:22:44;1.10;;;0.90;;
82387;SDS011;72027;47.420;9.310;2024-02-26T03:25:12;2.17;;;0.88;;
82387;SDS011;72027;47.420;9.310;2024-02-26T03:27:40;2.28;;;0.88;;
82387;SDS011;72027;47.420;9.310;2024-02-26T03:30:09;2.97;;;0.73;;
82387;SDS011;72027;47.420;9.310;2024-02-26T03:32:37;1.65;;;0.70;;
82387;SDS011;72027;47.420;9.310;2024-02-26T03:35:05;1.77;;;0.80;;
82387;SDS011;72027;47.420;9.310;2024-02-26T03:37:34;0.75;;;0.75;;
82387;SDS011;72027;47.420;9.310;2024-02-26T03:40:02;2.00;;;0.50;;
82387;SDS011;72027;47.420;9.310;2024-02-26T03:42:30;2.45;;;0.77;;
82387;SDS011;72027;47.420;9.310;2024-02-26T03:44:58;0.75;;;0.70;;
82387;SDS011;72027;47.420;9.310;2024-02-26T03:47:27;0.70;;;0.70;;
82387;SDS011;72027;47.420;9.310;2024-02-26T03:49:55;0.90;;;0.80;;
82387;SDS011;72027;47.420;9.310;2024-02-26T03:52:22;0.80;;;0.80;;
82387;SDS011;72027;47.420;9.310;2024-02-26T03:54:50;1.95;;;0.75;;
82387;SDS011;72027;47.420;9.310;2024-02-26T03:57:18;0.63;;;0.60;;
82387;SDS011;72027;47.420;9.310;2024-02-26T03:59:46;0.85;;;0.60;;
82387;SDS011;72027;47.420;9.310;2024-02-26T04:02:13;0.80;;;0.80;;
82387;SDS011;72027;47.420;9.310;2024-02-26T04:04:42;1.02;;;0.85;;
82387;SDS011;72027;47.420;9.310;2024-02-26T04:07:10;1.13;;;0.85;;
82387;SDS011;72027;47.420;9.310;2024-02-26T04:09:39;1.30;;;0.65;;
82387;SDS011;72027;47.420;9.310;2024-02-26T04:12:07;2.60;;;0.98;;
82387;SDS011;72027;47.420;9.310;2024-02-26T04:14:35;0.77;;;0.75;;
82387;SDS011;72027;47.420;9.310;2024-02-26T04:17:03;0.65;;;0.52;;
82387;SDS011;72027;47.420;9.310;2024-02-26T04:19:31;2.45;;;0.70;;
82387;SDS011;72027;47.420;9.310;2024-02-26T04:22:01;2.42;;;1.02;;
82387;SDS011;72027;47.420;9.310;2024-02-26T04:24:29;1.70;;;1.23;;
82387;SDS011;72027;47.420;9.310;2024-02-26T04:26:56;1.17;;;0.90;;
82387;SDS011;72027;47.420;9.310;2024-02-26T04:29:24;1.63;;;0.90;;
82387;SDS011;72027;47.420;9.310;2024-02-26T04:31:52;0.82;;;0.80;;
82387;SDS011;72027;47.420;9.310;2024-02-26T04:34:20;1.17;;;0.95;;
82387;SDS011;72027;47.420;9.310;2024-02-26T04:36:48;1.08;;;1.00;;
82387;SDS011;72027;47.420;9.310;2024-02-26T04:39:17;1.23;;;0.98;;
82387;SDS011;72027;47.420;9.310;2024-02-26T04:41:44;1.67;;;0.70;;
82387;SDS011;72027;47.420;9.310;2024-02-26T04:44:12;1.23;;;1.05;;
82387;SDS011;72027;47.420;9.310;2024-02-26T04:46:40;1.02;;;0.93;;
82387;SDS011;72027;47.420;9.310;2024-02-26T04:49:08;0.95;;;0.63;;
82387;SDS011;72027;47.420;9.310;2024-02-26T04:51:36;1.30;;;0.90;;
82387;SDS011;72027;47.420;9.310;2024-02-26T04:54:04;0.93;;;0.90;;
82387;SDS011;72027;47.420;9.310;2024-02-26T04:56:36;1.55;;;0.90;;
82387;SDS011;72027;47.420;9.310;2024-02-26T04:59:03;2.88;;;0.90;;
82387;SDS011;72027;47.420;9.310;2024-02-26T05:01:31;0.70;;;0.68;;
82387;SDS011;72027;47.420;9.310;2024-02-26T05:03:59;2.47;;;1.10;;
82387;SDS011;72027;47.420;9.310;2024-02-26T05:06:27;1.48;;;1.00;;
82387;SDS011;72027;47.420;9.310;2024-02-26T05:08:55;1.98;;;1.52;;
82387;SDS011;72027;47.420;9.310;2024-02-26T05:11:22;1.98;;;1.00;;
82387;SDS011;72027;47.420;9.310;2024-02-26T05:13:51;1.38;;;1.13;;
82387;SDS011;72027;47.420;9.310;2024-02-26T05:16:20;2.70;;;1.48;;
82387;SDS011;72027;47.420;9.310;2024-02-26T05:18:50;1.77;;;1.10;;
82387;SDS011;72027;47.420;9.310;2024-02-26T05:21:18;1.60;;;1.10;;
82387;SDS011;72027;47.420;9.310;2024-02-26T05:23:46;3.22;;;1.45;;
82387;SDS011;72027;47.420;9.310;2024-02-26T05:26:19;1.88;;;1.30;;
82387;SDS011;72027;47.420;9.310;2024-02-26T05:28:47;2.22;;;1.58;;
82387;SDS011;72027;47.420;9.310;2024-02-26T05:31:17;1.67;;;1.35;;
82387;SDS011;72027;47.420;9.310;2024-02-26T05:33:45;3.70;;;1.20;;
82387;SDS011;72027;47.420;9.310;2024-02-26T05:36:17;2.78;;;1.45;;
82387;SDS011;72027;47.420;9.310;2024-02-26T05:38:46;1.65;;;1.55;;
82387;SDS011;72027;47.420;9.310;2024-02-26T05:41:14;3.78;;;1.70;;
82387;SDS011;72027;47.420;9.310;2024-02-26T05:43:42;2.45;;;1.85;;
82387;SDS011;72027;47.420;9.310;2024-02-26T05:46:10;1.40;;;1.30;;
82387;SDS011;72027;47.420;9.310;2024-02-26T05:48:39;1.92;;;1.23;;
82387;SDS011;72027;47.420;9.310;2024-02-26T05:51:07;1.48;;;1.10;;
82387;SDS011;72027;47.420;9.310;2024-02-26T05:53:36;3.03;;;1.50;;
82387;SDS011;72027;47.420;9.310;2024-02-26T05:56:04;2.83;;;1.58;;
82387;SDS011;72027;47.420;9.310;2024-02-26T05:58:33;1.48;;;1.23;;
82387;SDS011;72027;47.420;9.310;2024-02-26T06:01:01;3.97;;;1.25;;
82387;SDS011;72027;47.420;9.310;2024-02-26T06:03:29;1.40;;;0.98;;
82387;SDS011;72027;47.420;9.310;2024-02-26T06:05:58;2.45;;;1.02;;
82387;SDS011;72027;47.420;9.310;2024-02-26T06:08:26;1.73;;;1.50;;
82387;SDS011;72027;47.420;9.310;2024-02-26T06:10:53;5.60;;;1.83;;
82387;SDS011;72027;47.420;9.310;2024-02-26T06:13:21;2.90;;;1.80;;
82387;SDS011;72027;47.420;9.310;2024-02-26T06:15:49;5.03;;;1.60;;
82387;SDS011;72027;47.420;9.310;2024-02-26T06:18:17;2.30;;;1.73;;
82387;SDS011;72027;47.420;9.310;2024-02-26T06:20:45;2.05;;;1.65;;
82387;SDS011;72027;47.420;9.310;2024-02-26T06:23:14;1.98;;;1.40;;
82387;SDS011;72027;47.420;9.310;2024-02-26T06:25:42;1.77;;;1.45;;
82387;SDS011;72027;47.420;9.310;2024-02-26T06:28:09;1.33;;;1.20;;
82387;SDS011;72027;47.420;9.310;2024-02-26T06:30:37;3.67;;;1.30;;
82387;SDS011;72027;47.420;9.310;2024-02-26T06:33:05;2.97;;;1.30;;
82387;SDS011;72027;47.420;9.310;2024-02-26T06:35:33;5.22;;;2.20;;
82387;SDS011;72027;47.420;9.310;2024-02-26T06:38:00;2.90;;;1.67;;
82387;SDS011;72027;47.420;9.310;2024-02-26T06:40:30;2.20;;;1.83;;
82387;SDS011;72027;47.420;9.310;2024-02-26T06:42:57;6.10;;;2.65;;
82387;SDS011;72027;47.420;9.310;2024-02-26T06:45:25;2.15;;;1.60;;
82387;SDS011;72027;47.420;9.310;2024-02-26T06:47:53;3.85;;;1.70;;
82387;SDS011;72027;47.420;9.310;2024-02-26T06:50:22;2.85;;;1.08;;
82387;SDS011;72027;47.420;9.310;2024-02-26T06:52:50;4.10;;;1.50;;
82387;SDS011;72027;47.420;9.310;2024-02-26T06:55:17;5.80;;;1.60;;
82387;SDS011;72027;47.420;9.310;2024-02-26T06:57:46;1.73;;;1.40;;
82387;SDS011;72027;47.420;9.310;2024-02-26T07:00:14;1.48;;;1.38;;
82387;SDS011;72027;47.420;9.310;2024-02-26T07:02:43;1.77;;;1.40;;
82387;SDS011;72027;47.420;9.310;2024-02-26T07:05:11;3.35;;;1.85;;
82387;SDS011;72027;47.420;9.310;2024-02-26T07:07:39;1.40;;;1.05;;
82387;SDS011;72027;47.420;9.310;2024-02-26T07:10:07;1.73;;;1.23;;
82387;SDS011;72027;47.420;9.310;2024-02-26T07:12:35;1.65;;;1.50;;
82387;SDS011;72027;47.420;9.310;2024-02-26T07:15:06;4.65;;;2.08;;
82387;SDS011;72027;47.420;9.310;2024-02-26T07:17:37;3.80;;;2.22;;
82387;SDS011;72027;47.420;9.310;2024-02-26T07:20:08;2.15;;;1.30;;
82387;SDS011;72027;47.420;9.310;2024-02-26T07:22:37;3.83;;;1.98;;
82387;SDS011;72027;47.420;9.310;2024-02-26T07:25:05;2.90;;;1.92;;
82387;SDS011;72027;47.420;9.310;2024-02-26T07:27:35;2.90;;;2.05;;
82387;SDS011;72027;47.420;9.310;2024-02-26T07:30:03;4.95;;;2.17;;
82387;SDS011;72027;47.420;9.310;2024-02-26T07:32:33;3.40;;;1.73;;
82387;SDS011;72027;47.420;9.310;2024-02-26T07:35:00;3.10;;;1.75;;
82387;SDS011;72027;47.420;9.310;2024-02-26T07:37:28;2.75;;;2.08;;
82387;SDS011;72027;47.420;9.310;2024-02-26T07:39:56;3.20;;;1.90;;
82387;SDS011;72027;47.420;9.310;2024-02-26T07:42:24;3.20;;;1.92;;
82387;SDS011;72027;47.420;9.310;2024-02-26T07:44:52;2.75;;;1.75;;
82387;SDS011;72027;47.420;9.310;2024-02-26T07:47:22;5.18;;;2.55;;
82387;SDS011;72027;47.420;9.310;2024-02-26T07:49:51;2.72;;;1.63;;
82387;SDS011;72027;47.420;9.310;2024-02-26T07:52:19;3.00;;;2.20;;
82387;SDS011;72027;47.420;9.310;2024-02-26T07:54:46;7.82;;;1.70;;
82387;SDS011;72027;47.420;9.310;2024-02-26T07:57:14;3.50;;;2.08;;
82387;SDS011;72027;47.420;9.310;2024-02-26T07:59:43;3.17;;;1.92;;
82387;SDS011;72027;47.420;9.310;2024-02-26T08:02:16;3.50;;;1.67;;
82387;SDS011;72027;47.420;9.310;2024-02-26T08:04:43;2.20;;;1.70;;
82387;SDS011;72027;47.420;9.310;2024-02-26T08:07:13;2.85;;;1.60;;
82387;SDS011;72027;47.420;9.310;2024-02-26T08:09:41;2.95;;;2.05;;
82387;SDS011;72027;47.420;9.310;2024-02-26T08:12:09;2.72;;;1.88;;
82387;SDS011;72027;47.420;9.310;2024-02-26T08:14:37;5.18;;;2.15;;
82387;SDS011;72027;47.420;9.310;2024-02-26T08:17:05;4.28;;;1.60;;
82387;SDS011;72027;47.420;9.310;2024-02-26T08:19:33;3.55;;;2.10;;
82387;SDS011;72027;47.420;9.310;2024-02-26T08:22:02;1.88;;;1.63;;
82387;SDS011;72027;47.420;9.310;2024-02-26T08:24:32;3.40;;;1.95;;
82387;SDS011;72027;47.420;9.310;2024-02-26T08:26:59;1.90;;;1.50;;
82387;SDS011;72027;47.420;9.310;2024-02-26T08:29:27;3.00;;;2.25;;
82387;SDS011;72027;47.420;9.310;2024-02-26T08:31:55;5.38;;;2.03;;
82387;SDS011;72027;47.420;9.310;2024-02-26T08:34:23;2.90;;;1.63;;
82387;SDS011;72027;47.420;9.310;2024-02-26T08:36:50;3.63;;;2.08;;
82387;SDS011;72027;47.420;9.310;2024-02-26T08:39:18;2.13;;;1.80;;
82387;SDS011;72027;47.420;9.310;2024-02-26T08:41:48;4.07;;;1.83;;
82387;SDS011;72027;47.420;9.310;2024-02-26T08:44:16;6.68;;;2.40;;
82387;SDS011;72027;47.420;9.310;2024-02-26T08:46:44;3.03;;;1.58;;
82387;SDS011;72027;47.420;9.310;2024-02-26T08:49:12;4.05;;;1.83;;
82387;SDS011;72027;47.420;9.310;2024-02-26T08:51:41;3.70;;;1.90;;
82387;SDS011;72027;47.420;9.310;2024-02-26T08:54:09;3.08;;;1.60;;
82387;SDS011;72027;47.420;9.310;2024-02-26T08:56:37;2.45;;;1.55;;
82387;SDS011;72027;47.420;9.310;2024-02-26T08:59:06;3.65;;;1.85;;
82387;SDS011;72027;47.420;9.310;2024-02-26T09:01:34;3.95;;;2.20;;
82387;SDS011;72027;47.420;9.310;2024-02-26T09:04:02;2.42;;;1.65;;
82387;SDS011;72027;47.420;9.310;2024-02-26T09:06:30;5.55;;;1.70;;
82387;SDS011;72027;47.420;9.310;2024-02-26T09:08:58;4.45;;;2.70;;
82387;SDS011;72027;47.420;9.310;2024-02-26T09:11:27;3.55;;;1.50;;
82387;SDS011;72027;47.420;9.310;2024-02-26T09:13:55;3.17;;;1.40;;
82387;SDS011;72027;47.420;9.310;2024-02-26T09:16:24;2.17;;;1.40;;
82387;SDS011;72027;47.420;9.310;2024-02-26T09:18:51;2.33;;;1.92;;
82387;SDS011;72027;47.420;9.310;2024-02-26T09:21:19;1.75;;;1.30;;
82387;SDS011;72027;47.420;9.310;2024-02-26T09:23:50;2.67;;;1.52;;
82387;SDS011;72027;47.420;9.310;2024-02-26T09:26:18;3.17;;;1.95;;
82387;SDS011;72027;47.420;9.310;2024-02-26T09:28:45;3.20;;;1.70;;
82387;SDS011;72027;47.420;9.310;2024-02-26T09:31:14;2.60;;;1.92;;
82387;SDS011;72027;47.420;9.310;2024-02-26T09:33:44;2.90;;;1.63;;
82387;SDS011;72027;47.420;9.310;2024-02-26T09:36:12;3.20;;;1.85;;
82387;SDS011;72027;47.420;9.310;2024-02-26T09:38:40;3.47;;;1.70;;
82387;SDS011;72027;47.420;9.310;2024-02-26T09:41:14;2.47;;;1.60;;
82387;SDS011;72027;47.420;9.310;2024-02-26T09:43:43;2.60;;;1.58;;
82387;SDS011;72027;47.420;9.310;2024-02-26T09:46:12;3.13;;;1.33;;
82387;SDS011;72027;47.420;9.310;2024-02-26T09:48:42;5.25;;;3.13;;
82387;SDS011;72027;47.420;9.310;2024-02-26T09:51:12;5.70;;;1.95;;
82387;SDS011;72027;47.420;9.310;2024-02-26T09:53:42;7.90;;;2.72;;
82387;SDS011;72027;47.420;9.310;2024-02-26T09:56:11;2.47;;;1.83;;
82387;SDS011;72027;47.420;9.310;2024-02-26T09:58:40;2.08;;;1.65;;
82387;SDS011;72027;47.420;9.310;2024-02-26T10:01:12;3.38;;;1.90;;
82387;SDS011;72027;47.420;9.310;2024-02-26T10:03:45;5.07;;;1.60;;
82387;SDS011;72027;47.420;9.310;2024-02-26T10:06:19;3.22;;;1.83;;
82387;SDS011;72027;47.420;9.310;2024-02-26T10:08:47;1.83;;;1.65;;
82387;SDS011;72027;47.420;9.310;2024-02-26T10:11:15;2.53;;;1.88;;
82387;SDS011;72027;47.420;9.310;2024-02-26T10:13:44;3.15;;;1.88;;
82387;SDS011;72027;47.420;9.310;2024-02-26T10:16:12;2.60;;;1.83;;
82387;SDS011;72027;47.420;9.310;2024-02-26T10:18:48;3.95;;;2.00;;
82387;SDS011;72027;47.420;9.310;2024-02-26T10:21:22;2.35;;;1.77;;
82387;SDS011;72027;47.420;9.310;2024-02-26T10:23:50;2.78;;;1.90;;
82387;SDS011;72027;47.420;9.310;2024-02-26T10:26:18;4.88;;;1.92;;
82387;SDS011;72027;47.420;9.310;2024-02-26T10:28:47;6.55;;;2.25;;
82387;SDS011;72027;47.420;9.310;2024-02-26T10:31:16;4.55;;;2.65;;
82387;SDS011;72027;47.420;9.310;2024-02-26T10:33:44;4.97;;;2.28;;
82387;SDS011;72027;47.420;9.310;2024-02-26T10:36:14;3.53;;;2.35;;
82387;SDS011;72027;47.420;9.310;2024-02-26T10:38:42;2.58;;;1.83;;
82387;SDS011;72027;47.420;9.310;2024-02-26T10:41:12;4.38;;;2.55;;
82387;SDS011;72027;47.420;9.310;2024-02-26T10:43:41;2.60;;;1.63;;
82387;SDS011;72027;47.420;9.310;2024-02-26T10:46:09;3.55;;;2.20;;
82387;SDS011;72027;47.420;9.310;2024-02-26T10:48:38;2.05;;;1.65;;
82387;SDS011;72027;47.420;9.310;2024-02-26T10:51:06;2.13;;;1.45;;
82387;SDS011;72027;47.420;9.310;2024-02-26T10:53:39;5.13;;;1.98;;
82387;SDS011;72027;47.420;9.310;2024-02-26T10:56:08;6.05;;;1.88;;
82387;SDS011;72027;47.420;9.310;2024-02-26T10:58:39;2.90;;;1.65;;
82387;SDS011;72027;47.420;9.310;2024-02-26T11:01:08;2.78;;;1.60;;
82387;SDS011;72027;47.420;9.310;2024-02-26T11:03:37;2.88;;;1.83;;
82387;SDS011;72027;47.420;9.310;2024-02-26T11:06:06;3.03;;;1.88;;
82387;SDS011;72027;47.420;9.310;2024-02-26T11:08:36;2.85;;;1.75;;
82387;SDS011;72027;47.420;9.310;2024-02-26T11:11:07;3.45;;;1.63;;
82387;SDS011;72027;47.420;9.310;2024-02-26T11:13:35;2.88;;;1.95;;
82387;SDS011;72027;47.420;9.310;2024-02-26T11:16:09;6.38;;;2.83;;
82387;SDS011;72027;47.420;9.310;2024-02-26T11:18:37;5.70;;;2.22;;
82387;SDS011;72027;47.420;9.310;2024-02-26T11:21:08;5.03;;;1.85;;
82387;SDS011;72027;47.420;9.310;2024-02-26T11:23:38;2.75;;;1.67;;
82387;SDS011;72027;47.420;9.310;2024-02-26T11:26:08;5.57;;;2.28;;
82387;SDS011;72027;47.420;9.310;2024-02-26T11:28:38;2.17;;;1.90;;
82387;SDS011;72027;47.420;9.310;2024-02-26T11:31:06;3.78;;;2.03;;
82387;SDS011;72027;47.420;9.310;2024-02-26T11:33:35;4.45;;;1.85;;
82387;SDS011;72027;47.420;9.310;2024-02-26T11:36:07;2.33;;;1.77;;
82387;SDS011;72027;47.420;9.310;2024-02-26T11:38:36;2.97;;;1.67;;
82387;SDS011;72027;47.420;9.310;2024-02-26T11:41:04;3.63;;;2.10;;
82387;SDS011;72027;47.420;9.310;2024-02-26T11:43:53;4.78;;;2.08;;
82387;SDS011;72027;47.420;9.310;2024-02-26T11:46:27;5.75;;;2.40;;
82387;SDS011;72027;47.420;9.310;2024-02-26T11:49:00;6.57;;;2.35;;
82387;SDS011;72027;47.420;9.310;2024-02-26T11:51:32;3.45;;;1.92;;
82387;SDS011;72027;47.420;9.310;2024-02-26T11:54:01;4.25;;;1.85;;
82387;SDS011;72027;47.420;9.310;2024-02-26T11:56:28;3.30;;;2.10;;
82387;SDS011;72027;47.420;9.310;2024-02-26T11:59:03;2.25;;;1.70;;
82387;SDS011;72027;47.420;9.310;2024-02-26T12:01:40;2.45;;;2.00;;
82387;SDS011;72027;47.420;9.310;2024-02-26T12:04:12;2.85;;;1.83;;
82387;SDS011;72027;47.420;9.310;2024-02-26T12:06:42;2.40;;;1.63;;
82387;SDS011;72027;47.420;9.310;2024-02-26T12:12:04;3.38;;;1.48;;
82387;SDS011;72027;47.420;9.310;2024-02-26T12:14:34;4.97;;;1.67;;
82387;SDS011;72027;47.420;9.310;2024-02-26T12:17:05;2.40;;;1.65;;
82387;SDS011;72027;47.420;9.310;2024-02-26T12:19:35;4.75;;;2.05;;
82387;SDS011;72027;47.420;9.310;2024-02-26T12:22:07;3.10;;;1.50;;
82387;SDS011;72027;47.420;9.310;2024-02-26T12:24:35;1.27;;;0.93;;
82387;SDS011;72027;47.420;9.310;2024-02-26T12:27:03;2.35;;;1.23;;
82387;SDS011;72027;47.420;9.310;2024-02-26T12:29:32;2.97;;;1.30;;
82387;SDS011;72027;47.420;9.310;2024-02-26T12:32:01;1.63;;;0.93;;
82387;SDS011;72027;47.420;9.310;2024-02-26T12:34:33;2.35;;;1.58;;
82387;SDS011;72027;47.420;9.310;2024-02-26T12:37:01;1.00;;;0.90;;
82387;SDS011;72027;47.420;9.310;2024-02-26T12:39:29;2.05;;;0.80;;
82387;SDS011;72027;47.420;9.310;2024-02-26T12:41:58;1.48;;;1.00;;
82387;SDS011;72027;47.420;9.310;2024-02-26T12:44:26;3.80;;;1.40;;
82387;SDS011;72027;47.420;9.310;2024-02-26T12:46:59;3.47;;;1.52;;
82387;SDS011;72027;47.420;9.310;2024-02-26T12:49:27;4.72;;;1.60;;
82387;SDS011;72027;47.420;9.310;2024-02-26T12:51:55;2.80;;;1.73;;
82387;SDS011;72027;47.420;9.310;2024-02-26T12:54:27;3.75;;;1.95;;
82387;SDS011;72027;47.420;9.310;2024-02-26T12:56:55;3.75;;;1.60;;
82387;SDS011;72027;47.420;9.310;2024-02-26T12:59:23;3.72;;;2.22;;
82387;SDS011;72027;47.420;9.310;2024-02-26T13:01:52;4.60;;;2.53;;
82387;SDS011;72027;47.420;9.310;2024-02-26T13:04:20;8.02;;;2.45;;
82387;SDS011;72027;47.420;9.310;2024-02-26T13:06:49;6.43;;;2.67;;
82387;SDS011;72027;47.420;9.310;2024-02-26T13:09:17;4.13;;;2.33;;
82387;SDS011;72027;47.420;9.310;2024-02-26T13:11:45;3.33;;;2.53;;
82387;SDS011;72027;47.420;9.310;2024-02-26T13:14:19;4.90;;;2.38;;
82387;SDS011;72027;47.420;9.310;2024-02-26T13:16:54;5.88;;;2.50;;
82387;SDS011;72027;47.420;9.310;2024-02-26T13:19:22;6.20;;;2.90;;
82387;SDS011;72027;47.420;9.310;2024-02-26T13:21:51;5.90;;;2.60;;
82387;SDS011;72027;47.420;9.310;2024-02-26T13:24:19;5.22;;;2.17;;
82387;SDS011;72027;47.420;9.310;2024-02-26T13:26:53;3.97;;;2.17;;
82387;SDS011;72027;47.420;9.310;2024-02-26T13:29:21;6.30;;;2.05;;
82387;SDS011;72027;47.420;9.310;2024-02-26T13:31:55;3.03;;;1.50;;
82387;SDS011;72027;47.420;9.310;2024-02-26T13:34:24;3.60;;;1.15;;
82387;SDS011;72027;47.420;9.310;2024-02-26T13:36:54;3.50;;;1.83;;
82387;SDS011;72027;47.420;9.310;2024-02-26T13:39:22;10.00;;;3.28;;
82387;SDS011;72027;47.420;9.310;2024-02-26T13:41:51;4.22;;;3.13;;
82387;SDS011;72027;47.420;9.310;2024-02-26T13:44:19;6.72;;;2.90;;
82387;SDS011;72027;47.420;9.310;2024-02-26T13:46:48;3.55;;;2.03;;
82387;SDS011;72027;47.420;9.310;2024-02-26T13:49:16;8.80;;;2.30;;
82387;SDS011;72027;47.420;9.310;2024-02-26T13:51:44;4.97;;;2.90;;
82387;SDS011;72027;47.420;9.310;2024-02-26T13:54:13;10.10;;;3.17;;
82387;SDS011;72027;47.420;9.310;2024-02-26T13:56:41;4.45;;;2.13;;
82387;SDS011;72027;47.420;9.310;2024-02-26T13:59:12;3.55;;;2.28;;
82387;SDS011;72027;47.420;9.310;2024-02-26T14:01:40;5.38;;;3.05;;
82387;SDS011;72027;47.420;9.310;2024-02-26T14:04:08;5.05;;;2.58;;
82387;SDS011;72027;47.420;9.310;2024-02-26T14:06:36;4.80;;;2.05;;
82387;SDS011;72027;47.420;9.310;2024-02-26T14:09:04;3.25;;;2.13;;
82387;SDS011;72027;47.420;9.310;2024-02-26T14:11:34;6.00;;;2.38;;
82387;SDS011;72027;47.420;9.310;2024-02-26T14:14:02;3.25;;;2.67;;
82387;SDS011;72027;47.420;9.310;2024-02-26T14:16:30;3.78;;;2.15;;
82387;SDS011;72027;47.420;9.310;2024-02-26T14:18:58;3.80;;;2.45;;
82387;SDS011;72027;47.420;9.310;2024-02-26T14:21:26;4.38;;;2.78;;
82387;SDS011;72027;47.420;9.310;2024-02-26T14:23:55;3.55;;;1.77;;
82387;SDS011;72027;47.420;9.310;2024-02-26T14:26:23;2.33;;;1.75;;
82387;SDS011;72027;47.420;9.310;2024-02-26T14:28:53;3.97;;;2.20;;
82387;SDS011;72027;47.420;9.310;2024-02-26T14:31:20;4.97;;;2.25;;
82387;SDS011;72027;47.420;9.310;2024-02-26T14:33:48;4.45;;;2.03;;
82387;SDS011;72027;47.420;9.310;2024-02-26T14:36:19;3.88;;;2.50;;
82387;SDS011;72027;47.420;9.310;2024-02-26T14:38:48;4.43;;;2.15;;
82387;SDS011;72027;47.420;9.310;2024-02-26T14:41:16;3.20;;;2.38;;
82387;SDS011;72027;47.420;9.310;2024-02-26T14:43:44;6.20;;;2.63;;
82387;SDS011;72027;47.420;9.310;2024-02-26T14:46:14;3.85;;;2.40;;
82387;SDS011;72027;47.420;9.310;2024-02-26T14:48:42;5.65;;;2.83;;
82387;SDS011;72027;47.420;9.310;2024-02-26T14:51:10;2.90;;;2.47;;
82387;SDS011;72027;47.420;9.310;2024-02-26T14:53:37;3.20;;;2.10;;
82387;SDS011;72027;47.420;9.310;2024-02-26T14:56:05;3.63;;;2.47;;
82387;SDS011;72027;47.420;9.310;2024-02-26T14:58:33;3.83;;;2.60;;
82387;SDS011;72027;47.420;9.310;2024-02-26T15:01:01;6.40;;;3.53;;
82387;SDS011;72027;47.420;9.310;2024-02-26T15:03:31;5.72;;;2.53;;